Weather at Kristiansand Airport

Public forecast

Using degrees Celsius for public forecast. Weather courtesy of forecast.io.

Current aviation weather report (METAR) for Kristiansand Airport

Retrieved 2020/11/27 03:20 UTC (2 hours ago):

ENCN 270320Z AUTO 06005KT 9999 NCD M03/M03 Q1020

Aviation forecast (TAF) for Kristiansand Airport

Forecast is more than 12 hours old.

Retrieved 2016/05/06 12:39 UTC (5 years ago):

TAF TAF ENCN 061100Z 0612/0712 14008KT 9999 FEW040